Time;durP1;ratioP1;P1;durP2;ratioP2;P2;SDS_P1;SDS_P2;PMS_P1;PMS_P2;Temp;Humidity;BMP_temperature;BMP_pressure;BME280_temperature;BME280_humidity;BME280_pressure;Samples;Min_cycle;Max_cycle;Signal;HPM_P1;HPM_P2
2022/01/30 00:01:48;;;;;;;46.63;10.13;;;;;;;8.84;61.38;102747.22;5258380;28;20424;-49
2022/01/30 00:04:20;;;;;;;56.55;12.80;;;;;;;8.73;61.46;102741.75;5264038;28;20531;-46
2022/01/30 00:06:54;;;;;;;42.45;10.73;;;;;;;8.86;61.32;102762.97;5261384;28;20465;-52
2022/01/30 00:09:27;;;;;;;41.80;10.65;;;;;;;8.85;61.35;102766.53;5257606;27;20420;-46
2022/01/30 00:12:02;;;;;;;43.42;10.10;;;;;;;8.81;61.12;102771.13;5263278;28;21040;-46
2022/01/30 00:14:37;;;;;;;53.00;11.37;;;;;;;8.80;61.38;102771.22;5261582;27;20451;-46
2022/01/30 00:17:16;;;;;;;44.50;10.07;;;;;;;8.78;61.14;102773.94;5266199;28;20902;-45
2022/01/30 00:19:55;;;;;;;39.83;9.40;;;;;;;8.73;61.26;102768.97;5259784;28;20863;-45
2022/01/30 00:22:42;;;;;;;54.28;11.70;;;;;;;8.76;61.24;102781.94;5260684;28;20830;-48
2022/01/30 00:25:17;;;;;;;52.78;12.35;;;;;;;8.77;61.21;102775.72;5261125;28;20404;-51
2022/01/30 00:27:55;;;;;;;61.92;12.43;;;;;;;8.69;61.16;102762.16;5256054;28;20423;-46
2022/01/30 00:30:33;;;;;;;46.90;10.80;;;;;;;8.76;61.14;102775.81;5260238;27;20390;-46
2022/01/30 00:33:06;;;;;;;45.88;9.50;;;;;;;8.66;61.25;102772.03;5260515;28;20744;-47
2022/01/30 00:35:38;;;;;;;55.05;12.75;;;;;;;8.63;61.11;102780.94;5267309;28;20424;-47
2022/01/30 00:38:18;;;;;;;43.88;10.98;;;;;;;8.70;61.27;102774.41;5260804;27;20432;-50
2022/01/30 00:40:52;;;;;;;45.70;10.70;;;;;;;8.70;61.43;102777.03;5267565;27;20415;-49
2022/01/30 00:43:24;;;;;;;44.03;9.73;;;;;;;8.70;61.24;102774.41;5268496;28;20433;-49
2022/01/30 00:45:57;;;;;;;43.63;11.45;;;;;;;8.67;61.19;102785.13;5262656;28;20493;-49
2022/01/30 00:48:29;;;;;;;37.45;9.85;;;;;;;8.66;61.17;102772.88;5265639;28;20501;-46
2022/01/30 00:51:02;;;;;;;38.20;11.17;;;;;;;8.64;61.28;102768.63;5270819;28;20547;-49
2022/01/30 00:53:36;;;;;;;38.97;10.73;;;;;;;8.59;61.38;102761.00;5264182;27;20494;-47
2022/01/30 00:56:09;;;;;;;42.17;10.25;;;;;;;8.55;61.32;102775.31;5261338;28;20428;-49
2022/01/30 00:58:41;;;;;;;38.95;11.25;;;;;;;8.54;61.26;102776.22;5263888;28;20416;-45
2022/01/30 01:01:13;;;;;;;36.97;10.27;;;;;;;8.51;61.40;102771.97;5266685;28;20414;-49
2022/01/30 01:03:46;;;;;;;47.63;11.38;;;;;;;8.30;61.27;102747.72;5261238;27;20400;-47
2022/01/30 01:06:18;;;;;;;46.20;10.80;;;;;;;8.48;61.33;102781.84;5264216;27;20965;-47
2022/01/30 01:08:57;;;;;;;51.28;11.75;;;;;;;8.13;61.28;102747.81;5261683;27;20811;-49
2022/01/30 01:12:06;;;;;;;44.83;10.07;;;;;;;8.40;61.44;102777.03;5265408;28;20396;-55
2022/01/30 01:23:26;;;;;;;44.30;9.35;;;;;;;8.40;61.47;102782.28;5261564;28;20417;-47
2022/01/30 01:26:02;;;;;;;39.90;11.40;;;;;;;8.36;61.56;102780.75;5264756;28;20431;-55
2022/01/30 01:28:34;;;;;;;41.92;9.68;;;;;;;8.25;61.77;102762.91;5263570;28;20478;-57
2022/01/30 01:31:07;;;;;;;43.55;10.57;;;;;;;8.29;61.72;102774.13;5262164;27;20505;-50
2022/01/30 01:33:52;;;;;;;41.53;9.77;;;;;;;8.32;61.66;102785.31;5264399;28;20448;-44
2022/01/30 01:36:24;;;;;;;26.85;6.88;;;;;;;8.24;61.73;102768.28;5262082;27;20477;-47
2022/01/30 01:38:57;;;;;;;27.20;5.50;;;;;;;8.35;61.81;102788.72;5264606;28;20523;-53
2022/01/30 01:41:33;;;;;;;21.50;6.60;;;;;;;8.37;61.79;102786.84;5264952;28;20896;-46
2022/01/30 01:44:14;;;;;;;26.58;5.68;;;;;;;8.38;61.96;102781.53;5252652;28;20496;-47
2022/01/30 01:46:48;;;;;;;27.48;7.05;;;;;;;8.34;61.88;102772.09;5265607;28;20461;-46
2022/01/30 01:49:27;;;;;;;26.48;7.60;;;;;;;8.42;61.80;102788.31;5261239;28;21268;-47
2022/01/30 01:52:18;;;;;;;27.15;7.00;;;;;;;8.42;61.71;102800.63;5262832;27;20414;-48
2022/01/30 01:54:54;;;;;;;28.35;8.20;;;;;;;8.41;61.79;102806.84;5262170;27;20420;-45
2022/01/30 01:57:29;;;;;;;33.10;7.88;;;;;;;8.37;61.83;102818.44;5260465;28;20906;-47
2022/01/30 02:00:02;;;;;;;30.88;7.43;;;;;;;8.36;61.66;102800.94;5263583;28;20491;-48
2022/01/30 02:02:34;;;;;;;37.80;8.68;;;;;;;8.32;61.63;102795.84;5263495;28;20411;-44
2022/01/30 02:05:09;;;;;;;33.65;8.65;;;;;;;8.23;61.62;102780.56;5262809;28;20496;-48
2022/01/30 02:10:36;;;;;;;29.87;7.57;;;;;;;8.25;61.60;102789.25;5257493;27;20517;-45
2022/01/30 02:13:45;;;;;;;32.28;7.78;;;;;;;8.24;61.63;102784.91;5262147;28;20431;-46
2022/01/30 02:25:14;;;;;;;27.02;7.43;;;;;;;8.18;61.72;102787.06;5263679;28;20409;-48
2022/01/30 02:27:47;;;;;;;26.20;6.93;;;;;;;8.21;61.81;102797.41;5259872;28;20872;-48
2022/01/30 02:30:20;;;;;;;24.63;7.07;;;;;;;8.19;61.72;102786.09;5266803;28;20411;-49
2022/01/30 02:32:54;;;;;;;21.42;6.35;;;;;;;8.18;61.79;102800.22;5259932;28;20481;-51
2022/01/30 02:35:26;;;;;;;19.92;6.65;;;;;;;8.14;61.74;102802.16;5260978;28;20800;-50
2022/01/30 02:38:01;;;;;;;29.30;7.07;;;;;;;8.10;61.72;102813.78;5259262;28;20427;-50
2022/01/30 02:40:39;;;;;;;27.70;6.23;;;;;;;8.07;61.73;102811.31;5258032;28;20816;-50
2022/01/30 02:43:14;;;;;;;24.40;6.30;;;;;;;8.03;61.84;102815.06;5260875;27;20817;-46
2022/01/30 02:45:57;;;;;;;25.92;6.25;;;;;;;8.01;61.76;102806.41;5260008;27;20413;-47
2022/01/30 02:48:45;;;;;;;25.65;7.32;;;;;;;7.98;61.76;102802.16;5257261;27;20437;-46
2022/01/30 02:51:19;;;;;;;23.42;6.45;;;;;;;7.93;61.78;102798.94;5262157;28;20441;-53
2022/01/30 02:54:03;;;;;;;17.47;5.53;;;;;;;7.53;61.87;102735.38;5259606;28;20802;-51
2022/01/30 02:56:36;;;;;;;24.55;6.20;;;;;;;7.85;61.83;102796.72;5266552;28;20492;-48
2022/01/30 02:59:10;;;;;;;30.10;6.03;;;;;;;7.91;61.87;102810.47;5259738;27;20750;-51
2022/01/30 03:01:43;;;;;;;22.55;6.03;;;;;;;7.89;61.77;102812.34;5262305;28;20402;-54
2022/01/30 03:04:16;;;;;;;27.55;6.32;;;;;;;7.80;61.75;102803.16;5260510;28;20448;-54
2022/01/30 03:06:49;;;;;;;23.88;6.00;;;;;;;7.89;61.75;102823.69;5257216;27;20482;-48
2022/01/30 03:09:23;;;;;;;20.98;6.50;;;;;;;7.89;61.82;102828.13;5257832;28;20501;-50
2022/01/30 03:11:55;;;;;;;25.00;7.55;;;;;;;7.86;61.94;102835.25;5260295;28;20424;-50
2022/01/30 03:14:27;;;;;;;32.37;7.17;;;;;;;7.85;61.59;102833.53;5259089;28;20883;-50
2022/01/30 03:17:00;;;;;;;28.50;6.68;;;;;;;7.84;61.59;102836.28;5266511;28;20826;-48
2022/01/30 03:19:32;;;;;;;22.20;7.00;;;;;;;7.82;61.57;102836.34;5264278;27;20431;-46
2022/01/30 03:22:05;;;;;;;27.25;7.85;;;;;;;7.75;61.75;102824.47;5265146;28;20507;-47
2022/01/30 03:24:39;;;;;;;24.95;6.55;;;;;;;7.75;61.69;102824.47;5259990;27;20415;-46
2022/01/30 03:27:13;;;;;;;24.52;6.85;;;;;;;7.75;61.71;102818.38;5258669;27;20491;-53
2022/01/30 03:29:50;;;;;;;30.50;7.85;;;;;;;7.74;61.54;102833.31;5259917;28;20484;-50
2022/01/30 03:32:23;;;;;;;32.67;7.67;;;;;;;7.66;61.67;102817.06;5260845;28;20406;-50
2022/01/30 03:34:55;;;;;;;32.35;7.72;;;;;;;7.67;61.55;102824.03;5259182;28;20410;-47
2022/01/30 03:37:28;;;;;;;26.40;7.38;;;;;;;7.64;61.61;102821.56;5260189;27;20846;-45
2022/01/30 03:40:01;;;;;;;34.38;7.68;;;;;;;7.69;61.71;102835.31;5264671;28;20420;-45
2022/01/30 03:42:34;;;;;;;26.02;6.90;;;;;;;7.69;61.64;102832.69;5257792;28;20414;-49
2022/01/30 03:45:08;;;;;;;29.37;7.00;;;;;;;7.69;61.77;102832.69;5265863;28;20413;-45
2022/01/30 03:47:40;;;;;;;27.30;8.25;;;;;;;7.75;61.64;102837.63;5262916;28;20410;-46
2022/01/30 03:50:13;;;;;;;25.48;7.65;;;;;;;7.81;61.75;102836.44;5261363;27;20542;-49
2022/01/30 03:52:45;;;;;;;26.13;6.63;;;;;;;7.84;61.57;102831.84;5263932;28;20484;-47
2022/01/30 03:55:19;;;;;;;24.80;6.80;;;;;;;7.88;61.74;102832.53;5259413;27;20746;-46
2022/01/30 03:57:52;;;;;;;30.70;7.55;;;;;;;7.85;61.77;102838.81;5261990;28;20420;-48
2022/01/30 04:00:24;;;;;;;35.25;8.13;;;;;;;7.90;61.70;102821.91;5260111;28;20433;-48
2022/01/30 04:02:56;;;;;;;30.50;6.38;;;;;;;7.86;61.65;102816.81;5258204;28;20416;-51
2022/01/30 04:05:29;;;;;;;27.15;6.20;;;;;;;8.00;61.52;102841.56;5253749;28;20440;-47
2022/01/30 04:08:03;;;;;;;25.95;8.00;;;;;;;8.01;61.70;102843.25;5262383;27;20427;-47
2022/01/30 04:10:38;;;;;;;27.58;6.38;;;;;;;7.97;61.67;102853.09;5261451;28;20883;-51
2022/01/30 04:13:11;;;;;;;27.35;5.28;;;;;;;7.95;61.55;102848.84;5258929;28;20416;-48
2022/01/30 04:15:44;;;;;;;23.80;6.27;;;;;;;7.91;61.61;102847.31;5260517;28;20394;-45
2022/01/30 04:18:17;;;;;;;21.58;5.43;;;;;;;7.86;61.75;102856.28;5258075;28;20418;-49
2022/01/30 04:20:51;;;;;;;29.73;8.07;;;;;;;7.81;61.80;102855.69;5261286;28;20869;-50
2022/01/30 04:23:23;;;;;;;25.92;7.35;;;;;;;7.78;61.70;102853.22;5257817;27;20752;-50
2022/01/30 04:25:57;;;;;;;25.67;6.82;;;;;;;7.79;61.82;102854.06;5261736;28;20420;-45
2022/01/30 04:28:30;;;;;;;28.20;8.15;;;;;;;7.79;61.57;102841.78;5264639;28;20431;-47
2022/01/30 04:31:03;;;;;;;26.70;7.15;;;;;;;7.77;61.61;102850.66;5271103;27;20503;-46
2022/01/30 04:33:36;;;;;;;35.27;7.93;;;;;;;7.75;61.50;102855.19;5269711;28;20424;-47
2022/01/30 04:36:14;;;;;;;36.90;8.00;;;;;;;7.69;61.67;102834.47;5270938;28;20408;-46
2022/01/30 04:38:57;;;;;;;27.92;6.93;;;;;;;7.69;61.60;102843.19;5270401;28;20396;-47
2022/01/30 04:41:56;;;;;;;34.35;8.13;;;;;;;7.76;61.64;102843.72;5259997;28;20407;-46
2022/01/30 04:53:19;;;;;;;27.13;7.00;;;;;;;7.54;61.52;102828.25;5268702;27;20401;-45
2022/01/30 04:59:12;;;;;;;35.70;10.13;;;;;;;7.74;61.50;102871.88;5263553;27;20413;-44
2022/01/30 05:01:58;;;;;;;33.10;8.00;;;;;;;7.71;61.64;102872.91;5268579;28;20502;-47
2022/01/30 05:04:45;;;;;;;38.08;8.77;;;;;;;7.68;61.49;102869.56;5267449;27;20426;-46
2022/01/30 05:07:29;;;;;;;29.35;7.15;;;;;;;7.64;61.55;102866.25;5270691;28;20465;-46
2022/01/30 05:10:01;;;;;;;28.73;7.80;;;;;;;7.60;61.63;102875.25;5270265;27;20496;-46
2022/01/30 05:12:42;;;;;;;33.67;8.57;;;;;;;7.32;61.34;102837.25;5269878;27;20839;-46
2022/01/30 05:15:18;;;;;;;43.70;10.45;;;;;;;7.19;61.79;102823.06;5269168;28;20412;-48
2022/01/30 05:17:51;;;;;;;42.38;8.18;;;;;;;7.33;61.67;102844.19;5273993;28;20916;-45
2022/01/30 05:20:24;;;;;;;40.05;10.30;;;;;;;7.54;61.41;102891.34;5270100;28;20479;-49
2022/01/30 05:23:34;;;;;;;31.10;9.95;;;;;;;7.53;61.74;102879.97;5272959;28;20466;-46
2022/01/30 05:26:09;;;;;;;33.83;9.00;;;;;;;7.53;61.59;102890.50;5273000;28;20412;-45
2022/01/30 05:28:42;;;;;;;39.38;7.85;;;;;;;7.52;61.75;102890.56;5272396;28;23193;-47
2022/01/30 05:31:16;;;;;;;37.47;9.67;;;;;;;7.53;61.64;102900.16;5272367;28;20483;-50
2022/01/30 05:33:49;;;;;;;52.17;10.68;;;;;;;7.53;61.62;102902.81;5272972;28;20875;-46
2022/01/30 05:36:22;;;;;;;36.80;10.30;;;;;;;7.53;61.61;102898.38;5265097;27;20764;-47
2022/01/30 05:38:55;;;;;;;42.63;10.88;;;;;;;7.49;61.51;102902.09;5268578;28;20406;-48
2022/01/30 05:41:29;;;;;;;37.33;8.27;;;;;;;7.51;61.54;102902.03;5271413;27;20840;-47
2022/01/30 05:44:12;;;;;;;43.47;9.85;;;;;;;7.50;61.50;102905.59;5255989;28;20517;-46
2022/01/30 05:46:53;;;;;;;40.15;11.40;;;;;;;7.31;61.58;102884.66;5265450;27;20498;-45
2022/01/30 05:49:28;;;;;;;37.67;8.90;;;;;;;7.49;61.29;102924.91;5256736;27;20416;-46
2022/01/30 05:52:00;;;;;;;46.58;9.90;;;;;;;7.48;61.53;102928.47;5261370;28;20410;-48
2022/01/30 05:54:32;;;;;;;36.42;10.07;;;;;;;7.48;61.22;102934.56;5262875;28;20410;-48
2022/01/30 05:57:06;;;;;;;46.95;11.32;;;;;;;7.47;61.28;102948.66;5262911;28;20422;-48
2022/01/30 05:59:38;;;;;;;51.67;11.02;;;;;;;7.44;61.30;102945.34;5258190;28;20503;-45
2022/01/30 06:02:12;;;;;;;29.17;8.85;;;;;;;7.42;61.18;102950.66;5263093;27;20430;-45
2022/01/30 06:04:45;;;;;;;41.75;10.35;;;;;;;7.41;61.27;102948.97;5263966;28;20501;-47
2022/01/30 06:07:21;;;;;;;40.63;10.07;;;;;;;7.37;61.35;102945.66;5257038;28;20487;-47
2022/01/30 06:09:54;;;;;;;48.72;12.02;;;;;;;7.41;61.08;102953.38;5264717;28;20479;-46
2022/01/30 06:12:26;;;;;;;46.10;11.75;;;;;;;7.30;61.15;102938.97;5266787;28;20415;-56
2022/01/30 06:14:58;;;;;;;44.80;11.85;;;;;;;7.38;61.08;102955.22;5261106;28;20445;-52
2022/01/30 06:17:32;;;;;;;49.87;10.73;;;;;;;7.37;61.05;102964.03;5266159;28;21035;-45
2022/01/30 06:20:07;;;;;;;49.00;12.15;;;;;;;7.32;61.03;102966.03;5261683;28;20758;-48
2022/01/30 06:22:40;;;;;;;45.17;11.85;;;;;;;7.32;60.85;102971.31;5263508;27;20498;-47
2022/01/30 06:25:12;;;;;;;38.72;11.63;;;;;;;7.30;61.03;102962.63;5266663;28;21467;-47
2022/01/30 06:27:45;;;;;;;56.63;13.32;;;;;;;7.28;60.78;102975.03;5263078;28;20507;-46
2022/01/30 06:30:21;;;;;;;40.22;9.85;;;;;;;7.27;60.72;102975.94;5267127;28;20400;-46
2022/01/30 06:32:55;;;;;;;39.03;9.98;;;;;;;7.25;60.76;102985.69;5263872;28;20833;-46
2022/01/30 06:35:27;;;;;;;53.47;11.75;;;;;;;7.22;60.56;102991.09;5266402;28;20465;-46
2022/01/30 06:38:02;;;;;;;37.85;10.60;;;;;;;7.23;60.83;102998.03;5262130;27;20480;-46
2022/01/30 06:40:34;;;;;;;38.15;10.10;;;;;;;7.23;60.83;102998.03;5267473;28;20448;-46
2022/01/30 06:43:07;;;;;;;47.80;10.88;;;;;;;7.25;60.78;103000.59;5258120;28;20511;-46
2022/01/30 06:45:42;;;;;;;49.83;11.95;;;;;;;7.29;60.71;102997.75;5266826;28;20444;-48
2022/01/30 06:48:18;;;;;;;44.90;11.70;;;;;;;7.34;60.72;103006.25;5263143;27;20417;-48
2022/01/30 06:50:50;;;;;;;39.00;9.90;;;;;;;7.38;60.55;103002.53;5258883;28;20417;-49
2022/01/30 06:53:24;;;;;;;54.80;12.63;;;;;;;7.35;60.74;103002.69;5257783;28;20440;-50
2022/01/30 06:55:56;;;;;;;40.92;9.85;;;;;;;7.46;60.59;103015.28;5267005;27;20763;-45
2022/01/30 06:58:29;;;;;;;32.22;8.55;;;;;;;7.48;60.70;103002.09;5257425;28;20431;-46
2022/01/30 07:01:01;;;;;;;48.20;11.77;;;;;;;7.48;60.66;103002.09;5262887;28;20490;-47
2022/01/30 07:03:35;;;;;;;39.70;10.10;;;;;;;7.47;60.42;103017.00;5259452;27;20504;-48
2022/01/30 07:06:07;;;;;;;34.05;10.18;;;;;;;7.45;60.32;103018.00;5263024;28;20506;-48
2022/01/30 07:08:40;;;;;;;42.95;10.82;;;;;;;7.37;60.51;103010.50;5258804;27;20424;-47
2022/01/30 07:11:12;;;;;;;38.40;11.25;;;;;;;7.40;60.54;103012.97;5259757;28;20408;-49
2022/01/30 07:13:44;;;;;;;46.15;11.35;;;;;;;7.42;60.73;103020.78;5264838;28;20413;-52
2022/01/30 07:16:17;;;;;;;49.55;12.45;;;;;;;7.26;60.39;103003.16;5266704;28;20404;-56
2022/01/30 07:18:51;;;;;;;32.45;9.68;;;;;;;7.44;60.37;103037.34;5263498;28;20497;-47
2022/01/30 07:21:23;;;;;;;43.67;10.93;;;;;;;7.42;60.45;103041.81;5257342;27;20780;-48
2022/01/30 07:23:56;;;;;;;40.15;11.93;;;;;;;7.39;60.45;103038.41;5259854;28;20815;-48
2022/01/30 07:26:28;;;;;;;43.60;11.43;;;;;;;7.39;60.26;103046.28;5263535;28;20461;-46
2022/01/30 07:29:03;;;;;;;41.65;10.00;;;;;;;7.37;60.44;103052.53;5259843;28;20543;-46
2022/01/30 07:31:36;;;;;;;62.77;12.60;;;;;;;7.31;60.37;103047.63;5259995;28;20492;-47
2022/01/30 07:34:10;;;;;;;46.50;11.13;;;;;;;7.33;60.41;103057.09;5257547;27;20449;-46
2022/01/30 07:36:43;;;;;;;47.05;11.10;;;;;;;7.35;60.33;103054.41;5260952;27;20409;-47
2022/01/30 07:39:16;;;;;;;44.22;13.10;;;;;;;7.36;60.34;103053.47;5259642;28;20830;-51
2022/01/30 07:41:49;;;;;;;42.07;9.87;;;;;;;7.33;60.56;103051.00;5259080;27;20412;-48
2022/01/30 07:44:21;;;;;;;42.53;10.65;;;;;;;7.33;60.38;103056.25;5256383;28;20413;-50
2022/01/30 07:46:56;;;;;;;46.47;11.97;;;;;;;7.36;60.63;103058.75;5258274;27;20545;-47
2022/01/30 07:49:30;;;;;;;36.25;9.98;;;;;;;7.37;60.31;103061.31;5263943;28;20415;-49
2022/01/30 07:52:02;;;;;;;35.80;9.57;;;;;;;7.39;60.57;103046.28;5261215;28;20893;-49
2022/01/30 07:54:35;;;;;;;39.72;10.20;;;;;;;7.42;60.46;103053.19;5255214;28;20952;-51
2022/01/30 07:57:08;;;;;;;37.28;9.88;;;;;;;7.46;60.41;103046.00;5258653;28;20429;-47
2022/01/30 07:59:42;;;;;;;37.65;10.68;;;;;;;7.48;60.40;103049.41;5265317;28;20500;-46
2022/01/30 08:02:14;;;;;;;45.15;11.13;;;;;;;7.53;60.17;103052.69;5264675;28;20465;-49
2022/01/30 08:04:48;;;;;;;37.13;9.88;;;;;;;7.56;60.25;103057.78;5263946;28;20503;-52
2022/01/30 08:07:22;;;;;;;47.53;10.20;;;;;;;7.53;60.15;103050.03;5259999;28;20491;-50
2022/01/30 08:09:55;;;;;;;46.20;11.57;;;;;;;7.62;60.15;103057.47;5258379;28;20501;-48
2022/01/30 08:12:27;;;;;;;47.00;11.02;;;;;;;7.66;60.03;103060.81;5256185;28;20440;-48
2022/01/30 08:15:00;;;;;;;35.05;9.85;;;;;;;7.74;59.93;103062.13;5263998;28;20517;-52
2022/01/30 08:17:33;;;;;;;42.65;10.23;;;;;;;7.80;59.80;103066.22;5260667;28;20427;-53
2022/01/30 08:20:09;;;;;;;50.25;10.95;;;;;;;7.89;59.65;103070.16;5257541;28;20422;-45
2022/01/30 08:22:49;;;;;;;43.53;10.30;;;;;;;7.96;59.59;103082.06;5263717;28;20507;-53
2022/01/30 08:25:23;;;;;;;46.80;11.00;;;;;;;7.65;59.39;103011.75;5270115;28;20825;-48
2022/01/30 08:27:56;;;;;;;53.65;10.45;;;;;;;8.12;59.26;103074.28;5259170;28;20408;-45
2022/01/30 08:30:28;;;;;;;49.13;11.43;;;;;;;8.17;59.21;103074.88;5254343;28;20485;-47
2022/01/30 08:33:02;;;;;;;43.97;10.55;;;;;;;8.36;59.04;103080.03;5263860;27;20463;-48
2022/01/30 08:35:36;;;;;;;42.95;11.63;;;;;;;8.45;58.68;103079.56;5256747;27;20412;-45
2022/01/30 08:38:10;;;;;;;37.88;10.27;;;;;;;8.71;58.35;103086.94;5251299;28;20555;-48
2022/01/30 08:40:42;;;;;;;41.45;10.10;;;;;;;8.89;57.96;103074.56;5269949;27;20411;-46
2022/01/30 08:43:17;;;;;;;34.63;9.23;;;;;;;9.03;57.94;103086.13;5269876;28;20409;-45
2022/01/30 08:45:52;;;;;;;45.58;9.15;;;;;;;9.00;58.02;103087.16;5256318;28;20424;-46
2022/01/30 08:48:24;;;;;;;38.47;9.40;;;;;;;9.10;57.85;103077.78;5257641;28;20892;-49
2022/01/30 08:50:58;;;;;;;38.75;9.60;;;;;;;9.34;57.43;103080.84;5253831;28;20515;-46
2022/01/30 08:53:30;;;;;;;40.20;9.63;;;;;;;9.62;57.09;103080.09;5257010;28;20416;-46
2022/01/30 08:56:03;;;;;;;51.00;10.43;;;;;;;9.75;56.91;103088.16;5262131;27;20414;-46
2022/01/30 08:58:35;;;;;;;47.08;9.82;;;;;;;9.69;56.96;103073.56;5258353;28;20901;-48
2022/01/30 09:01:08;;;;;;;57.72;14.95;;;;;;;9.67;56.87;103072.78;5256363;28;20501;-50
2022/01/30 09:03:41;;;;;;;40.67;9.55;;;;;;;9.72;57.11;103085.69;5256593;28;20853;-49
2022/01/30 09:06:14;;;;;;;34.03;8.77;;;;;;;9.69;57.11;103060.38;5255129;28;22398;-49
2022/01/30 09:08:47;;;;;;;61.55;11.95;;;;;;;9.72;57.07;103067.22;5257896;28;20426;-52
2022/01/30 09:11:19;;;;;;;42.23;10.77;;;;;;;9.80;57.07;103091.38;5268707;28;20508;-46
2022/01/30 09:13:51;;;;;;;37.35;9.18;;;;;;;9.69;57.06;103085.88;5255838;28;20406;-50
2022/01/30 09:16:24;;;;;;;50.33;11.20;;;;;;;9.55;57.21;103099.88;5254359;27;20521;-52
2022/01/30 09:18:57;;;;;;;42.55;11.00;;;;;;;9.49;57.34;103094.94;5258844;28;20791;-47
2022/01/30 09:21:31;;;;;;;52.03;10.27;;;;;;;9.49;57.23;103102.88;5254212;27;20927;-49
2022/01/30 09:24:04;;;;;;;40.27;9.17;;;;;;;9.55;57.07;103105.16;5258104;28;20424;-48
2022/01/30 09:26:36;;;;;;;40.70;10.60;;;;;;;9.64;56.95;103109.06;5257618;28;20588;-51
2022/01/30 09:29:09;;;;;;;39.33;10.43;;;;;;;9.76;56.96;103118.06;5252770;28;20424;-50
2022/01/30 09:31:41;;;;;;;38.50;11.18;;;;;;;9.82;56.81;103104.50;5256257;28;20422;-47
2022/01/30 09:34:13;;;;;;;35.90;8.80;;;;;;;9.83;56.74;103111.47;5258945;28;20794;-49
2022/01/30 09:36:47;;;;;;;42.53;9.38;;;;;;;9.76;56.87;103118.06;5258851;28;20439;-53
2022/01/30 09:39:20;;;;;;;44.15;10.73;;;;;;;9.79;56.85;103124.00;5264331;28;20538;-50
2022/01/30 09:41:54;;;;;;;41.45;10.88;;;;;;;9.77;56.82;103125.03;5254239;27;20493;-48
2022/01/30 09:44:26;;;;;;;42.10;11.13;;;;;;;9.72;56.99;103127.06;5252934;28;20496;-46
2022/01/30 09:46:59;;;;;;;36.70;9.77;;;;;;;9.70;56.85;103141.22;5259172;28;20495;-46
2022/01/30 09:49:32;;;;;;;47.78;10.32;;;;;;;9.70;56.81;103135.94;5253658;28;20440;-47
2022/01/30 09:52:07;;;;;;;49.85;11.05;;;;;;;9.74;56.95;103141.03;5250775;28;20784;-48
2022/01/30 09:54:40;;;;;;;45.90;11.23;;;;;;;9.77;56.80;103140.88;5258201;28;20772;-49
2022/01/30 09:57:13;;;;;;;50.05;11.07;;;;;;;9.82;56.54;103134.38;5254597;28;20476;-50
2022/01/30 09:59:46;;;;;;;47.00;11.52;;;;;;;9.88;56.50;103133.19;5252121;28;20436;-48
2022/01/30 10:02:20;;;;;;;43.72;11.10;;;;;;;9.89;56.45;103137.53;5258044;27;20402;-47
2022/01/30 10:04:54;;;;;;;38.88;10.95;;;;;;;9.87;56.08;103128.81;5254101;27;20402;-51
2022/01/30 10:07:44;;;;;;;33.75;9.25;;;;;;;9.86;56.32;103130.63;5254759;28;20537;-52
2022/01/30 10:10:18;;;;;;;42.42;9.85;;;;;;;9.82;56.31;103141.47;5258100;28;20404;-46
2022/01/30 10:13:12;;;;;;;46.85;10.60;;;;;;;9.81;55.98;103143.22;5258077;28;20417;-47
2022/01/30 10:15:54;;;;;;;45.15;10.10;;;;;;;9.79;56.17;103139.00;5250938;28;20825;-50
2022/01/30 10:18:32;;;;;;;54.80;11.63;;;;;;;9.84;56.06;103142.19;5264848;27;20440;-46
2022/01/30 10:21:04;;;;;;;45.85;9.45;;;;;;;9.88;56.02;103143.75;5258789;28;20428;-48
2022/01/30 10:23:38;;;;;;;41.42;9.80;;;;;;;9.84;55.94;103143.03;5259487;28;20934;-51
2022/01/30 10:26:18;;;;;;;37.35;10.00;;;;;;;9.88;55.92;103141.09;5260218;28;20536;-49
2022/01/30 10:28:50;;;;;;;40.17;10.63;;;;;;;9.94;55.80;103148.66;5264650;28;20545;-47
2022/01/30 10:31:24;;;;;;;38.50;9.77;;;;;;;9.99;55.68;103141.31;5265641;28;20535;-49
2022/01/30 10:33:57;;;;;;;39.40;9.80;;;;;;;10.10;55.49;103143.34;5259466;27;20415;-47
2022/01/30 10:36:31;;;;;;;45.13;10.57;;;;;;;10.23;55.52;103151.38;5265595;28;20817;-47
2022/01/30 10:39:12;;;;;;;42.88;9.82;;;;;;;10.30;55.35;103155.38;5255613;28;20811;-48
2022/01/30 10:41:53;;;;;;;41.63;10.05;;;;;;;10.38;55.31;103155.78;5256846;27;20494;-47
2022/01/30 10:44:25;;;;;;;47.08;11.45;;;;;;;10.37;55.06;103144.38;5253864;28;20896;-52
2022/01/30 10:46:57;;;;;;;51.65;12.23;;;;;;;10.42;54.97;103149.38;5263025;28;20529;-50
2022/01/30 10:49:30;;;;;;;34.90;10.30;;;;;;;10.42;54.94;103149.38;5256013;27;20481;-46
2022/01/30 10:52:04;;;;;;;44.10;11.23;;;;;;;10.43;54.85;103145.78;5257416;27;20961;-48
2022/01/30 10:54:38;;;;;;;50.23;11.63;;;;;;;10.39;54.69;103139.00;5263561;28;20475;-50
2022/01/30 10:57:12;;;;;;;39.40;9.35;;;;;;;10.41;54.63;103149.47;5268483;28;20475;-49
2022/01/30 10:59:53;;;;;;;45.33;10.95;;;;;;;10.34;54.60;103151.59;5267234;28;20423;-47
2022/01/30 11:02:28;;;;;;;46.40;10.52;;;;;;;10.28;54.70;103155.50;5255271;27;20429;-49
2022/01/30 11:05:07;;;;;;;48.63;10.65;;;;;;;10.27;54.75;103161.69;5257130;28;20533;-49
2022/01/30 11:07:39;;;;;;;41.17;11.18;;;;;;;10.25;54.36;103152.13;5257260;28;20409;-46
2022/01/30 11:10:23;;;;;;;51.77;9.80;;;;;;;10.28;54.45;103167.81;5251105;28;20429;-47
2022/01/30 11:13:08;;;;;;;41.97;10.75;;;;;;;10.20;54.56;103164.78;5251259;28;20418;-46
2022/01/30 11:15:43;;;;;;;41.50;10.35;;;;;;;9.95;54.30;103118.69;5262691;27;20508;-47
2022/01/30 11:18:17;;;;;;;37.60;9.38;;;;;;;10.24;54.50;103171.56;5251726;28;20408;-51
2022/01/30 11:20:50;;;;;;;36.92;9.85;;;;;;;10.35;54.37;103166.53;5269515;28;20416;-45
2022/01/30 11:23:24;;;;;;;40.83;11.45;;;;;;;10.50;54.19;103168.28;5267189;28;20840;-50
2022/01/30 11:25:58;;;;;;;45.70;9.70;;;;;;;10.59;54.01;103161.56;5265861;28;20434;-50
2022/01/30 11:28:31;;;;;;;37.47;9.80;;;;;;;10.55;53.98;103166.19;5267987;27;20557;-45
2022/01/30 11:31:03;;;;;;;37.38;9.63;;;;;;;10.48;53.83;103159.56;5263260;28;20422;-47
2022/01/30 11:33:37;;;;;;;52.78;12.00;;;;;;;10.43;53.96;103156.34;5258857;28;20534;-53
2022/01/30 11:36:11;;;;;;;46.28;10.73;;;;;;;10.37;53.97;103146.16;5252504;28;20420;-46
2022/01/30 11:38:43;;;;;;;41.03;9.98;;;;;;;10.29;53.91;103122.84;5259583;28;20484;-50
2022/01/30 11:41:19;;;;;;;43.35;10.35;;;;;;;10.55;53.58;103144.19;5249463;28;20515;-50
2022/01/30 11:44:29;;;;;;;33.35;10.00;;;;;;;10.72;53.58;103146.66;5254641;27;20804;-48
2022/01/30 11:47:24;;;;;;;56.05;11.02;;;;;;;10.74;53.42;103143.91;5252016;28;20472;-50
2022/01/30 11:50:09;;;;;;;44.63;9.93;;;;;;;10.76;53.54;103142.88;5250567;28;21071;-52
2022/01/30 11:53:03;;;;;;;45.60;9.93;;;;;;;10.75;53.26;103145.63;5252892;27;20418;-47
2022/01/30 11:55:58;;;;;;;42.35;10.60;;;;;;;10.68;53.38;103144.28;5249967;28;20448;-48
2022/01/30 11:58:58;;;;;;;44.33;10.73;;;;;;;10.63;53.53;103151.66;5253323;27;20471;-50
2022/01/30 12:01:40;;;;;;;41.00;9.30;;;;;;;10.65;53.49;103142.69;5241295;28;20815;-50
2022/01/30 12:04:16;;;;;;;51.40;10.07;;;;;;;10.70;53.12;103137.13;5254598;28;20904;-47
2022/01/30 12:06:50;;;;;;;39.28;10.32;;;;;;;10.76;53.42;103144.69;5252887;27;20509;-49
2022/01/30 12:09:29;;;;;;;35.30;8.48;;;;;;;10.74;53.24;103134.19;5253276;28;20408;-51
2022/01/30 12:12:07;;;;;;;53.03;10.43;;;;;;;10.69;53.26;103135.44;5251114;28;20416;-47
2022/01/30 12:14:51;;;;;;;45.75;11.13;;;;;;;10.75;53.30;103145.63;5261674;27;20406;-49
2022/01/30 12:18:00;;;;;;;50.92;10.80;;;;;;;10.75;53.15;103130.63;5261605;27;20404;-49
2022/01/30 12:20:59;;;;;;;38.95;10.15;;;;;;;10.38;53.05;103069.47;5256522;28;20418;-55
2022/01/30 12:23:34;;;;;;;52.07;10.23;;;;;;;10.66;53.03;103125.91;5255591;28;20410;-49
2022/01/30 12:26:09;;;;;;;43.88;10.48;;;;;;;10.68;53.09;103118.72;5258983;28;20423;-49
2022/01/30 12:28:44;;;;;;;41.93;10.93;;;;;;;10.73;53.00;103115.81;5259279;28;20419;-45
2022/01/30 12:31:30;;;;;;;47.28;10.85;;;;;;;10.76;52.99;103112.97;5255249;28;20919;-48